Time;durP1;ratioP1;P1;durP2;ratioP2;P2;SDS_P1;SDS_P2;PMS_P1;PMS_P2;Temp;Humidity;BMP_temperature;BMP_pressure;BME280_temperature;BME280_humidity;BME280_pressure;Samples;Min_cycle;Max_cycle;Signal;HPM_P1;HPM_P2
2023/11/21 00:02:18;;;;;;;1.30;0.98;;;;;11.00;97820.00;;;;4935766;29;20342;-64
2023/11/21 00:04:45;;;;;;;1.80;0.98;;;;;11.00;97819.00;;;;4933956;29;20055;-66
2023/11/21 00:07:12;;;;;;;1.83;1.08;;;;;11.00;97819.00;;;;4935206;29;20051;-64
2023/11/21 00:09:39;;;;;;;3.78;1.10;;;;;11.00;97821.00;;;;4918703;29;20471;-65
2023/11/21 00:12:05;;;;;;;1.58;1.15;;;;;11.00;97822.00;;;;4934509;29;20087;-64
2023/11/21 00:14:33;;;;;;;1.55;0.98;;;;;10.90;97818.00;;;;4934856;29;20044;-62
2023/11/21 00:16:59;;;;;;;1.52;1.02;;;;;10.90;97816.00;;;;4934238;29;20437;-64
2023/11/21 00:19:26;;;;;;;3.45;1.75;;;;;10.90;97810.00;;;;4935364;29;20047;-63
2023/11/21 00:21:53;;;;;;;3.42;1.00;;;;;10.90;97812.00;;;;4935194;29;20516;-64
2023/11/21 00:24:19;;;;;;;1.95;1.00;;;;;10.90;97805.00;;;;4934787;29;20043;-64
2023/11/21 00:26:48;;;;;;;2.42;1.00;;;;;10.90;97814.00;;;;4935424;29;20043;-64
2023/11/21 00:29:17;;;;;;;3.10;1.30;;;;;10.90;97811.00;;;;4935505;29;20048;-64
2023/11/21 00:31:44;;;;;;;2.33;0.90;;;;;11.00;97812.00;;;;4934828;29;20059;-65
2023/11/21 00:34:12;;;;;;;1.20;1.00;;;;;11.00;97807.00;;;;4935220;29;20050;-65
2023/11/21 00:36:40;;;;;;;1.85;0.95;;;;;11.00;97818.00;;;;4934632;29;20066;-62
2023/11/21 00:39:07;;;;;;;2.45;1.10;;;;;11.00;97815.00;;;;4918780;29;20098;-64
2023/11/21 00:41:34;;;;;;;1.20;0.90;;;;;11.00;97807.00;;;;4934652;29;20048;-64
2023/11/21 00:44:00;;;;;;;1.00;0.88;;;;;11.00;97818.00;;;;4918126;29;20134;-64
2023/11/21 00:46:29;;;;;;;1.88;1.10;;;;;11.00;97809.00;;;;4935513;29;20044;-64
2023/11/21 00:48:55;;;;;;;1.55;0.90;;;;;11.00;97812.00;;;;4935449;29;20082;-63
2023/11/21 00:51:22;;;;;;;2.08;0.80;;;;;11.00;97805.00;;;;4935834;29;20145;-64
2023/11/21 00:53:49;;;;;;;2.22;1.20;;;;;11.10;97814.00;;;;4933595;29;20099;-64
2023/11/21 00:56:15;;;;;;;1.65;1.10;;;;;11.10;97813.00;;;;4935694;29;20048;-63
2023/11/21 00:58:43;;;;;;;2.35;1.33;;;;;11.10;97813.00;;;;4934370;29;20062;-65
2023/11/21 01:01:10;;;;;;;3.17;1.05;;;;;11.10;97809.00;;;;4935302;29;20497;-65
2023/11/21 01:03:37;;;;;;;1.67;1.10;;;;;11.10;97814.00;;;;4935077;29;20040;-65
2023/11/21 01:06:07;;;;;;;2.42;1.00;;;;;11.10;97816.00;;;;4919361;29;20048;-62
2023/11/21 01:08:35;;;;;;;1.15;0.98;;;;;11.20;97815.00;;;;4921918;29;20055;-63
2023/11/21 01:11:03;;;;;;;1.85;1.25;;;;;11.20;97821.00;;;;4937656;29;20062;-65
2023/11/21 01:13:30;;;;;;;1.80;1.15;;;;;11.20;97815.00;;;;4938046;29;20059;-65
2023/11/21 01:15:57;;;;;;;3.83;1.67;;;;;11.20;97819.00;;;;4938676;29;20408;-65
2023/11/21 01:18:25;;;;;;;5.18;2.17;;;;;11.30;97830.00;;;;4939506;29;20099;-64
2023/11/21 01:20:53;;;;;;;2.88;1.52;;;;;11.30;97817.00;;;;4922517;29;20099;-65
2023/11/21 01:23:20;;;;;;;2.38;1.30;;;;;11.30;97825.00;;;;4938766;29;20070;-66
2023/11/21 01:25:46;;;;;;;4.57;2.38;;;;;11.30;97825.00;;;;4938088;29;20495;-63
2023/11/21 01:28:13;;;;;;;4.07;2.00;;;;;11.30;97830.00;;;;4937139;29;20046;-63
2023/11/21 01:30:40;;;;;;;2.60;1.40;;;;;11.40;97818.00;;;;4938535;29;20054;-62
2023/11/21 01:33:07;;;;;;;2.38;1.17;;;;;11.40;97832.00;;;;4937178;29;20283;-62
2023/11/21 01:35:35;;;;;;;2.53;1.40;;;;;11.40;97823.00;;;;4936520;29;20047;-63
2023/11/21 01:38:03;;;;;;;1.70;1.27;;;;;11.40;97828.00;;;;4937083;29;20498;-63
2023/11/21 01:40:30;;;;;;;1.75;1.38;;;;;11.40;97823.00;;;;4921343;29;20054;-63
2023/11/21 01:42:58;;;;;;;2.20;1.25;;;;;11.30;97821.00;;;;4938233;29;20126;-63
2023/11/21 01:45:24;;;;;;;2.63;1.48;;;;;11.40;97826.00;;;;4936641;29;20067;-63
2023/11/21 01:47:52;;;;;;;1.77;1.40;;;;;11.40;97830.00;;;;4936951;29;20047;-63
2023/11/21 01:50:23;;;;;;;2.08;1.42;;;;;11.40;97832.00;;;;4938071;29;20110;-63
2023/11/21 01:52:50;;;;;;;1.67;1.10;;;;;11.40;97830.00;;;;4936648;29;20088;-62
2023/11/21 01:55:18;;;;;;;1.88;1.63;;;;;11.40;97826.00;;;;4937228;29;20047;-62
2023/11/21 01:57:55;;;;;;;2.03;1.73;;;;;11.40;97830.00;;;;4922224;29;20044;-62
2023/11/21 02:00:23;;;;;;;3.85;1.50;;;;;11.40;97829.00;;;;4937862;29;20493;-62
2023/11/21 02:02:50;;;;;;;2.13;1.40;;;;;11.40;97828.00;;;;4936793;29;20106;-62
2023/11/21 02:05:18;;;;;;;4.63;1.67;;;;;11.40;97830.00;;;;4935926;29;20079;-62
2023/11/21 02:07:48;;;;;;;2.58;1.40;;;;;11.40;97834.00;;;;4920644;29;20556;-62
2023/11/21 02:10:16;;;;;;;2.72;1.60;;;;;11.40;97832.00;;;;4936690;29;20067;-62
2023/11/21 02:12:45;;;;;;;2.67;1.90;;;;;11.40;97835.00;;;;4937748;29;20493;-62
2023/11/21 02:15:19;;;;;;;2.72;2.20;;;;;11.40;97834.00;;;;4935504;29;20110;-62
2023/11/21 02:17:50;;;;;;;2.45;1.45;;;;;11.40;97840.00;;;;4920413;29;20048;-62
2023/11/21 02:20:19;;;;;;;2.53;1.70;;;;;11.30;97843.00;;;;4936155;29;20103;-62
2023/11/21 02:23:05;;;;;;;3.10;1.63;;;;;11.30;97837.00;;;;4935968;29;20056;-62
2023/11/21 02:25:33;;;;;;;1.55;1.45;;;;;11.30;97840.00;;;;4936508;29;20059;-61
2023/11/21 02:28:02;;;;;;;1.60;1.50;;;;;11.30;97844.00;;;;4939067;29;20099;-62
2023/11/21 02:30:31;;;;;;;6.75;1.92;;;;;11.30;97839.00;;;;4936200;29;20052;-62
2023/11/21 02:32:58;;;;;;;2.28;1.63;;;;;11.30;97844.00;;;;4935872;29;20078;-61
2023/11/21 02:35:30;;;;;;;3.97;1.90;;;;;11.30;97840.00;;;;4936689;29;20054;-62
2023/11/21 02:37:58;;;;;;;4.50;2.30;;;;;11.40;97844.00;;;;4936206;29;20420;-61
2023/11/21 02:40:26;;;;;;;3.95;2.10;;;;;11.40;97845.00;;;;4935973;29;20103;-62
2023/11/21 02:42:53;;;;;;;3.17;1.98;;;;;11.40;97843.00;;;;4935991;29;20051;-62
2023/11/21 02:45:20;;;;;;;2.60;1.88;;;;;11.40;97841.00;;;;4935191;29;20147;-61
2023/11/21 02:47:49;;;;;;;1.95;1.60;;;;;11.40;97838.00;;;;4937158;29;20051;-62
2023/11/21 02:50:18;;;;;;;3.10;1.85;;;;;11.40;97841.00;;;;4937059;29;20103;-61
2023/11/21 02:52:45;;;;;;;2.90;1.83;;;;;11.40;97846.00;;;;4936843;29;20044;-62
2023/11/21 02:55:13;;;;;;;2.15;1.50;;;;;11.40;97837.00;;;;4936139;29;20497;-61
2023/11/21 02:57:40;;;;;;;2.85;1.98;;;;;11.40;97837.00;;;;4936955;29;20498;-61
2023/11/21 03:00:07;;;;;;;3.08;2.60;;;;;11.40;97839.00;;;;4935692;29;20052;-61
2023/11/21 03:02:39;;;;;;;2.42;1.90;;;;;11.40;97846.00;;;;4937050;29;20043;-62
2023/11/21 03:05:08;;;;;;;2.60;1.52;;;;;11.40;97846.00;;;;4934837;29;20138;-61
2023/11/21 03:07:39;;;;;;;2.25;1.77;;;;;11.30;97844.00;;;;4935391;29;20083;-61
2023/11/21 03:10:09;;;;;;;1.80;1.70;;;;;11.30;97853.00;;;;4937105;29;20047;-61
2023/11/21 03:12:37;;;;;;;2.28;2.00;;;;;11.20;97840.00;;;;4935736;29;20472;-62
2023/11/21 03:15:08;;;;;;;1.85;1.63;;;;;11.20;97846.00;;;;4935044;29;20047;-61
2023/11/21 03:17:36;;;;;;;1.50;1.40;;;;;11.20;97838.00;;;;4935438;29;20478;-61
2023/11/21 03:20:04;;;;;;;2.03;1.83;;;;;11.10;97840.00;;;;4936773;29;20071;-60
2023/11/21 03:22:31;;;;;;;3.08;1.83;;;;;11.10;97857.00;;;;4936444;29;20394;-61
2023/11/21 03:24:58;;;;;;;2.83;2.33;;;;;11.10;97843.00;;;;4934347;29;20102;-61
2023/11/21 03:27:25;;;;;;;2.33;1.90;;;;;11.10;97850.00;;;;4935252;29;20047;-63
2023/11/21 03:29:52;;;;;;;3.05;2.08;;;;;11.10;97855.00;;;;4935762;29;20047;-62
2023/11/21 03:32:19;;;;;;;3.90;2.30;;;;;11.20;97850.00;;;;4935229;29;20040;-62
2023/11/21 03:34:57;;;;;;;4.18;2.42;;;;;11.10;97858.00;;;;4918661;29;20040;-62
2023/11/21 03:37:27;;;;;;;5.85;2.58;;;;;11.10;97863.00;;;;4936086;29;20130;-62
2023/11/21 03:39:58;;;;;;;3.65;2.40;;;;;11.20;97865.00;;;;4935008;29;20056;-62
2023/11/21 03:42:26;;;;;;;2.38;2.17;;;;;11.20;97862.00;;;;4934873;29;20055;-61
2023/11/21 03:44:53;;;;;;;4.05;2.50;;;;;11.20;97857.00;;;;4935455;29;20142;-62
2023/11/21 03:47:20;;;;;;;4.82;2.40;;;;;11.10;97863.00;;;;4934810;29;20469;-63
2023/11/21 03:49:47;;;;;;;4.13;2.80;;;;;11.10;97866.00;;;;4936745;29;20052;-61
2023/11/21 03:52:15;;;;;;;6.45;2.65;;;;;11.10;97866.00;;;;4936592;29;20086;-61
2023/11/21 03:54:43;;;;;;;5.07;2.75;;;;;11.10;97861.00;;;;4935000;29;20398;-63
2023/11/21 03:57:09;;;;;;;4.10;3.05;;;;;11.10;97867.00;;;;4935893;29;20408;-62
2023/11/21 03:59:39;;;;;;;5.40;3.13;;;;;11.00;97876.00;;;;4936169;29;20641;-61
2023/11/21 04:02:07;;;;;;;4.00;2.78;;;;;11.00;97882.00;;;;4935935;29;20047;-61
2023/11/21 04:04:35;;;;;;;5.32;3.50;;;;;11.00;97870.00;;;;4934947;29;20128;-62
2023/11/21 04:07:01;;;;;;;6.55;3.72;;;;;11.10;97880.00;;;;4934370;29;20052;-61
2023/11/21 04:09:28;;;;;;;3.92;3.50;;;;;11.10;97883.00;;;;4935708;29;20107;-62
2023/11/21 04:11:55;;;;;;;5.15;3.33;;;;;11.10;97878.00;;;;4934449;29;20501;-64
2023/11/21 04:14:22;;;;;;;6.88;3.80;;;;;11.10;97882.00;;;;4933686;29;20043;-64
2023/11/21 04:16:49;;;;;;;5.53;3.40;;;;;11.00;97889.00;;;;4935712;29;20050;-64
2023/11/21 04:19:16;;;;;;;3.75;3.33;;;;;10.90;97890.00;;;;4934377;29;20054;-64
2023/11/21 04:21:43;;;;;;;4.10;3.53;;;;;10.90;97892.00;;;;4935439;29;20043;-64
2023/11/21 04:24:10;;;;;;;4.13;3.72;;;;;10.90;97904.00;;;;4934851;29;20040;-64
2023/11/21 04:26:37;;;;;;;4.00;3.33;;;;;10.80;97904.00;;;;4935676;29;20043;-64
2023/11/21 04:29:04;;;;;;;5.55;3.45;;;;;10.80;97893.00;;;;4935436;29;20044;-64
2023/11/21 04:31:31;;;;;;;5.80;3.00;;;;;10.80;97896.00;;;;4935306;29;20126;-64
2023/11/21 04:33:58;;;;;;;2.88;2.67;;;;;10.90;97899.00;;;;4933904;29;20047;-64
2023/11/21 04:36:25;;;;;;;3.90;2.60;;;;;10.90;97905.00;;;;4936580;29;20134;-64
2023/11/21 04:38:52;;;;;;;3.40;2.63;;;;;10.90;97907.00;;;;4935771;29;20067;-63
2023/11/21 04:41:18;;;;;;;4.47;2.60;;;;;10.90;97921.00;;;;4950700;29;20055;-63
2023/11/21 04:43:45;;;;;;;1.85;1.73;;;;;10.90;97913.00;;;;4952953;29;20040;-64
2023/11/21 04:46:12;;;;;;;2.03;1.77;;;;;10.90;97919.00;;;;4953855;29;20044;-62
2023/11/21 04:48:38;;;;;;;3.75;2.15;;;;;10.90;97916.00;;;;4954823;29;20052;-63
2023/11/21 04:51:05;;;;;;;2.42;1.85;;;;;10.90;97922.00;;;;4939231;29;20059;-64
2023/11/21 04:53:32;;;;;;;3.50;2.15;;;;;10.90;97924.00;;;;4934342;29;20051;-62
2023/11/21 04:55:59;;;;;;;2.22;2.03;;;;;10.90;97940.00;;;;4935330;29;20055;-64
2023/11/21 04:58:25;;;;;;;3.80;2.42;;;;;10.90;97936.00;;;;4934058;29;20051;-64
2023/11/21 05:00:52;;;;;;;3.08;2.30;;;;;10.90;97939.00;;;;4933869;29;20497;-63
2023/11/21 05:03:18;;;;;;;4.60;2.10;;;;;11.00;97943.00;;;;4933960;29;20060;-64
2023/11/21 05:05:45;;;;;;;3.00;2.60;;;;;11.00;97950.00;;;;4918113;29;20048;-65
2023/11/21 05:08:13;;;;;;;2.15;1.95;;;;;11.10;97961.00;;;;4936769;29;20695;-63
2023/11/21 05:10:39;;;;;;;3.60;1.95;;;;;11.10;97958.00;;;;4935452;29;20062;-64
2023/11/21 05:13:10;;;;;;;2.42;1.88;;;;;11.10;97954.00;;;;4935847;29;20054;-64
2023/11/21 05:15:38;;;;;;;3.33;2.00;;;;;11.10;97960.00;;;;4938076;29;20102;-64
2023/11/21 05:18:05;;;;;;;2.00;1.77;;;;;11.10;97955.00;;;;4938038;29;20047;-63
2023/11/21 05:20:32;;;;;;;2.85;1.65;;;;;11.20;97962.00;;;;4938342;29;20080;-64
2023/11/21 05:22:59;;;;;;;2.47;1.70;;;;;11.20;97963.00;;;;4936181;29;20061;-65
2023/11/21 05:25:26;;;;;;;2.38;1.80;;;;;11.20;97963.00;;;;4936787;29;20039;-64
2023/11/21 05:27:54;;;;;;;2.85;1.85;;;;;11.20;97972.00;;;;4936252;29;20047;-64
2023/11/21 05:30:21;;;;;;;3.95;1.90;;;;;11.20;97976.00;;;;4935627;29;20056;-64
2023/11/21 05:32:49;;;;;;;2.13;1.90;;;;;11.30;97978.00;;;;4951223;29;20083;-63
2023/11/21 05:35:16;;;;;;;4.80;1.58;;;;;11.20;97976.00;;;;4952135;29;20513;-63
2023/11/21 05:37:45;;;;;;;2.22;1.83;;;;;11.20;97981.00;;;;4950635;29;20105;-63
2023/11/21 05:40:13;;;;;;;3.88;2.40;;;;;11.30;97989.00;;;;4954478;29;20051;-62
2023/11/21 05:42:40;;;;;;;3.42;1.70;;;;;11.30;97995.00;;;;4953794;29;20048;-61
2023/11/21 05:45:11;;;;;;;2.97;1.92;;;;;11.30;98000.00;;;;4954563;29;20044;-63
2023/11/21 05:47:40;;;;;;;4.38;2.65;;;;;11.30;98009.00;;;;4951782;29;20052;-63
2023/11/21 05:50:10;;;;;;;3.03;1.80;;;;;11.30;98006.00;;;;4950677;29;20107;-64
2023/11/21 05:52:37;;;;;;;2.17;1.40;;;;;11.30;97999.00;;;;4952057;29;20497;-63
2023/11/21 05:55:07;;;;;;;2.67;1.90;;;;;11.30;98000.00;;;;4947010;29;20051;-63
2023/11/21 05:57:38;;;;;;;2.28;2.08;;;;;11.30;98004.00;;;;4937093;29;20453;-63
2023/11/21 06:00:11;;;;;;;4.03;1.95;;;;;11.20;98017.00;;;;4937812;29;20048;-64
2023/11/21 06:02:38;;;;;;;3.28;1.77;;;;;11.20;98013.00;;;;4937829;29;20062;-64
2023/11/21 06:05:06;;;;;;;2.92;2.28;;;;;11.20;98012.00;;;;4935829;29;20564;-63
2023/11/21 06:07:34;;;;;;;1.85;1.70;;;;;11.20;98022.00;;;;4937441;29;20067;-64
2023/11/21 06:10:11;;;;;;;2.58;1.50;;;;;11.20;98022.00;;;;4937755;29;20043;-63
2023/11/21 06:12:39;;;;;;;2.10;1.92;;;;;11.20;98027.00;;;;4936559;29;20497;-64
2023/11/21 06:15:08;;;;;;;2.42;2.17;;;;;11.20;98023.00;;;;4936833;29;20058;-64
2023/11/21 06:17:36;;;;;;;1.73;1.63;;;;;11.20;98024.00;;;;4937602;29;20047;-63
2023/11/21 06:20:09;;;;;;;2.97;1.90;;;;;11.20;98030.00;;;;4937337;29;20043;-63
2023/11/21 06:22:40;;;;;;;3.30;1.75;;;;;11.10;98037.00;;;;4937499;29;20050;-64
2023/11/21 06:25:08;;;;;;;5.32;1.83;;;;;11.10;98043.00;;;;4935447;29;20058;-62
2023/11/21 06:27:39;;;;;;;1.55;1.25;;;;;11.10;98039.00;;;;4937403;29;20127;-64
2023/11/21 06:30:09;;;;;;;3.60;1.70;;;;;11.10;98045.00;;;;4937437;29;20047;-64
2023/11/21 06:32:36;;;;;;;2.42;2.03;;;;;11.10;98046.00;;;;4937171;29;20043;-64
2023/11/21 06:35:07;;;;;;;5.05;3.03;;;;;11.10;98051.00;;;;4936393;29;20123;-63
2023/11/21 06:37:34;;;;;;;3.00;2.03;;;;;11.10;98051.00;;;;4937146;29;20047;-63
2023/11/21 06:40:00;;;;;;;2.38;1.92;;;;;11.10;98048.00;;;;4920167;29;20062;-63
2023/11/21 06:42:28;;;;;;;2.75;1.92;;;;;11.10;98055.00;;;;4936949;29;20047;-64
2023/11/21 06:44:57;;;;;;;3.30;2.00;;;;;11.10;98053.00;;;;4936146;29;20075;-63
2023/11/21 06:47:29;;;;;;;2.25;1.90;;;;;11.10;98062.00;;;;4937010;29;20588;-63
2023/11/21 06:49:56;;;;;;;2.22;2.03;;;;;11.00;98071.00;;;;4935923;29;20485;-64
2023/11/21 06:52:23;;;;;;;2.40;2.20;;;;;11.00;98072.00;;;;4935572;29;20047;-64
2023/11/21 06:54:49;;;;;;;3.50;2.78;;;;;11.00;98074.00;;;;4935941;29;20071;-63
2023/11/21 06:57:17;;;;;;;2.78;2.08;;;;;10.90;98075.00;;;;4936704;29;20501;-64
2023/11/21 06:59:44;;;;;;;4.00;2.17;;;;;10.90;98083.00;;;;4936545;29;20138;-63
2023/11/21 07:02:10;;;;;;;5.07;2.65;;;;;10.90;98088.00;;;;4935495;29;20501;-63
2023/11/21 07:04:37;;;;;;;3.38;2.40;;;;;10.90;98092.00;;;;4935154;29;20550;-64
2023/11/21 07:07:06;;;;;;;2.92;2.13;;;;;10.90;98088.00;;;;4936447;29;20051;-64
2023/11/21 07:09:33;;;;;;;6.65;2.30;;;;;10.80;98103.00;;;;4919680;29;20111;-64
2023/11/21 07:12:00;;;;;;;4.30;2.03;;;;;10.80;98103.00;;;;4936457;29;20512;-62
2023/11/21 07:14:26;;;;;;;2.17;1.98;;;;;10.80;98116.00;;;;4935598;29;20123;-63
2023/11/21 07:16:53;;;;;;;4.97;2.40;;;;;10.80;98110.00;;;;4935260;29;20047;-64
2023/11/21 07:19:20;;;;;;;2.88;2.20;;;;;10.80;98111.00;;;;4936339;29;20059;-64
2023/11/21 07:21:50;;;;;;;3.25;2.30;;;;;10.90;98114.00;;;;4936222;29;20048;-64
2023/11/21 07:24:17;;;;;;;2.13;1.80;;;;;10.90;98119.00;;;;4934255;29;20075;-63
2023/11/21 07:26:44;;;;;;;3.05;1.92;;;;;11.00;98118.00;;;;4936313;29;20468;-64
2023/11/21 07:29:11;;;;;;;3.85;2.17;;;;;11.00;98129.00;;;;4936168;29;20512;-62
2023/11/21 07:31:38;;;;;;;4.00;2.05;;;;;11.00;98124.00;;;;4936182;29;20457;-63
2023/11/21 07:34:05;;;;;;;3.13;2.55;;;;;11.10;98130.00;;;;4935390;29;20099;-64
2023/11/21 07:36:32;;;;;;;2.78;1.80;;;;;11.10;98123.00;;;;4934746;29;20567;-63
2023/11/21 07:38:59;;;;;;;3.28;2.40;;;;;11.00;98119.00;;;;4936152;29;20409;-63
2023/11/21 07:41:26;;;;;;;3.15;2.13;;;;;11.10;98123.00;;;;4935277;29;20044;-64
2023/11/21 07:43:57;;;;;;;7.28;2.63;;;;;11.20;98136.00;;;;4935488;29;20047;-63
2023/11/21 07:46:26;;;;;;;7.93;2.55;;;;;11.20;98143.00;;;;4934637;29;20112;-64
2023/11/21 07:48:53;;;;;;;9.43;2.78;;;;;11.10;98148.00;;;;4934603;29;20056;-63
2023/11/21 07:51:20;;;;;;;3.40;2.53;;;;;11.10;98155.00;;;;4935715;29;20075;-63
2023/11/21 07:53:46;;;;;;;2.78;2.30;;;;;11.10;98165.00;;;;4935463;29;20135;-63
2023/11/21 07:56:13;;;;;;;2.70;2.38;;;;;11.00;98157.00;;;;4935776;29;20553;-62
2023/11/21 07:58:40;;;;;;;4.40;2.88;;;;;11.00;98169.00;;;;4935764;29;20062;-64
2023/11/21 08:01:07;;;;;;;3.60;2.80;;;;;11.00;98168.00;;;;4935748;29;20075;-64
2023/11/21 08:03:34;;;;;;;3.97;2.95;;;;;11.10;98188.00;;;;4935118;29;20468;-64
2023/11/21 08:06:03;;;;;;;5.28;2.80;;;;;11.10;98182.00;;;;4935286;29;20493;-64
2023/11/21 08:08:29;;;;;;;4.05;2.42;;;;;11.10;98196.00;;;;4935560;29;20051;-63
2023/11/21 08:10:56;;;;;;;6.93;2.33;;;;;11.00;98180.00;;;;4935384;29;20102;-64
2023/11/21 08:13:27;;;;;;;5.25;2.58;;;;;11.00;98186.00;;;;4935140;29;20355;-60
2023/11/21 08:15:58;;;;;;;3.08;2.55;;;;;11.00;98189.00;;;;4935930;29;20110;-64
2023/11/21 08:18:24;;;;;;;4.22;2.38;;;;;11.00;98185.00;;;;4934355;29;20055;-64
2023/11/21 08:20:51;;;;;;;3.35;2.85;;;;;11.00;98192.00;;;;4934053;29;20055;-63
2023/11/21 08:23:18;;;;;;;3.10;2.80;;;;;11.10;98201.00;;;;4935300;29;20122;-64
2023/11/21 08:25:44;;;;;;;4.25;2.60;;;;;11.20;98193.00;;;;4934687;29;20047;-63
2023/11/21 08:28:14;;;;;;;2.72;2.35;;;;;11.20;98200.00;;;;4934042;29;20055;-64
2023/11/21 08:30:41;;;;;;;5.13;3.20;;;;;11.20;98202.00;;;;4933845;29;20052;-63
2023/11/21 08:33:08;;;;;;;3.50;2.58;;;;;11.30;98196.00;;;;4935260;29;20456;-63
2023/11/21 08:35:38;;;;;;;3.50;2.97;;;;;11.30;98195.00;;;;4933200;29;20059;-64
2023/11/21 08:38:05;;;;;;;4.15;2.83;;;;;11.40;98207.00;;;;4935357;29;20465;-64
2023/11/21 08:40:32;;;;;;;4.75;2.80;;;;;11.40;98211.00;;;;4935193;29;20052;-63
2023/11/21 08:42:58;;;;;;;3.72;3.03;;;;;11.40;98208.00;;;;4935034;29;20409;-63
2023/11/21 08:45:28;;;;;;;4.07;2.50;;;;;11.40;98205.00;;;;4934231;29;20123;-64
2023/11/21 08:47:55;;;;;;;3.33;2.72;;;;;11.40;98208.00;;;;4934986;29;20067;-63
2023/11/21 08:50:21;;;;;;;4.20;2.63;;;;;11.40;98210.00;;;;4934916;29;20047;-63
2023/11/21 08:52:48;;;;;;;3.45;2.58;;;;;11.40;98222.00;;;;4934914;29;20090;-64
2023/11/21 08:55:15;;;;;;;4.35;2.60;;;;;11.30;98217.00;;;;4932762;29;20075;-63
2023/11/21 08:57:44;;;;;;;5.70;3.75;;;;;11.30;98231.00;;;;4934769;29;20091;-64
2023/11/21 09:00:11;;;;;;;3.38;3.00;;;;;11.30;98233.00;;;;4933495;29;20053;-64
2023/11/21 09:02:41;;;;;;;6.50;2.50;;;;;11.30;98234.00;;;;4934779;29;20136;-64
2023/11/21 09:05:09;;;;;;;4.43;2.80;;;;;11.30;98233.00;;;;4934149;29;20067;-64
2023/11/21 09:07:37;;;;;;;2.95;2.50;;;;;11.30;98228.00;;;;4934627;29;20054;-64
2023/11/21 09:10:09;;;;;;;3.40;1.85;;;;;11.30;98235.00;;;;4934815;29;20046;-64
2023/11/21 09:12:39;;;;;;;3.28;2.22;;;;;11.30;98233.00;;;;4934749;29;20119;-63
2023/11/21 09:15:07;;;;;;;2.95;2.00;;;;;11.30;98236.00;;;;4933807;29;20122;-64
2023/11/21 09:17:34;;;;;;;2.00;1.80;;;;;11.30;98245.00;;;;4934745;29;20075;-65
2023/11/21 09:20:05;;;;;;;3.10;2.25;;;;;11.30;98247.00;;;;4934630;29;20616;-65
2023/11/21 09:22:32;;;;;;;4.05;2.10;;;;;11.40;98248.00;;;;4934577;29;20051;-64
2023/11/21 09:24:59;;;;;;;3.78;2.50;;;;;11.50;98258.00;;;;4933889;29;20043;-64
2023/11/21 09:27:25;;;;;;;4.60;2.42;;;;;11.40;98258.00;;;;4936176;29;20646;-64
2023/11/21 09:29:53;;;;;;;2.55;2.35;;;;;11.40;98263.00;;;;4938599;29;20051;-64
2023/11/21 09:32:21;;;;;;;4.18;2.28;;;;;11.40;98261.00;;;;4938407;29;20127;-63
2023/11/21 09:34:49;;;;;;;2.42;2.08;;;;;11.40;98269.00;;;;4936442;29;20047;-63
2023/11/21 09:37:16;;;;;;;2.65;1.90;;;;;11.40;98268.00;;;;4938332;29;20080;-65
2023/11/21 09:39:43;;;;;;;3.13;2.20;;;;;11.50;98265.00;;;;4938300;29;20050;-65
2023/11/21 09:42:17;;;;;;;3.22;1.60;;;;;11.50;98264.00;;;;4938130;29;20126;-66
2023/11/21 09:44:51;;;;;;;;;;;;;11.60;98268.00;;;;4936658;29;20083;-65
2023/11/21 09:47:20;;;;;;;2.58;1.63;;;;;11.60;98282.00;;;;4937168;29;19929;-65
2023/11/21 09:49:49;;;;;;;2.10;1.83;;;;;11.50;98284.00;;;;4938143;29;20046;-64
2023/11/21 09:52:25;;;;;;;1.98;1.77;;;;;11.50;98282.00;;;;4936644;29;20476;-65
2023/11/21 09:54:54;;;;;;;3.03;2.10;;;;;11.60;98279.00;;;;4937175;29;20118;-65
2023/11/21 09:57:24;;;;;;;1.98;1.75;;;;;11.60;98286.00;;;;4937916;29;20052;-65
2023/11/21 09:59:55;;;;;;;4.35;2.00;;;;;11.60;98293.00;;;;4937992;29;20051;-63
2023/11/21 10:02:26;;;;;;;4.32;2.10;;;;;11.60;98294.00;;;;4938047;29;20058;-62
2023/11/21 10:04:56;;;;;;;4.65;1.80;;;;;11.50;98297.00;;;;4936243;29;20075;-63
2023/11/21 10:07:24;;;;;;;2.42;2.13;;;;;11.50;98298.00;;;;4937540;29;20058;-63
2023/11/21 10:09:52;;;;;;;1.60;1.50;;;;;11.40;98298.00;;;;4936647;29;20107;-62
2023/11/21 10:12:21;;;;;;;2.15;1.45;;;;;11.40;98308.00;;;;4936542;29;20122;-63
2023/11/21 10:14:49;;;;;;;3.13;1.63;;;;;11.30;98312.00;;;;4935676;29;20142;-62
2023/11/21 10:17:18;;;;;;;2.75;2.15;;;;;11.10;98312.00;;;;4937561;29;20051;-63
2023/11/21 10:19:48;;;;;;;1.92;1.30;;;;;11.10;98314.00;;;;4937490;29;20052;-61
2023/11/21 10:22:15;;;;;;;2.63;1.88;;;;;11.10;98313.00;;;;4936670;29;20122;-62
2023/11/21 10:24:43;;;;;;;3.67;1.63;;;;;11.10;98316.00;;;;4937427;29;20043;-62
2023/11/21 10:27:19;;;;;;;1.98;1.30;;;;;11.10;98318.00;;;;4938413;29;20103;-61
2023/11/21 10:29:45;;;;;;;3.03;1.65;;;;;11.20;98318.00;;;;4937066;29;20051;-62
2023/11/21 10:32:12;;;;;;;1.67;1.50;;;;;11.20;98325.00;;;;4937151;29;20047;-62
2023/11/21 10:34:41;;;;;;;3.35;1.88;;;;;11.30;98327.00;;;;4937023;29;20051;-61
2023/11/21 10:37:12;;;;;;;2.10;1.73;;;;;11.40;98335.00;;;;4935847;29;20048;-63
2023/11/21 10:39:39;;;;;;;5.57;1.70;;;;;11.40;98325.00;;;;4935851;29;20484;-61
2023/11/21 10:42:09;;;;;;;3.88;1.55;;;;;11.40;98331.00;;;;4936072;29;20051;-62
2023/11/21 10:44:35;;;;;;;1.65;1.40;;;;;11.40;98322.00;;;;4936380;29;20075;-61
2023/11/21 10:47:03;;;;;;;3.53;1.52;;;;;11.50;98332.00;;;;4937130;29;20047;-62
2023/11/21 10:49:30;;;;;;;2.00;1.25;;;;;11.50;98330.00;;;;4937072;29;20126;-61
2023/11/21 10:51:57;;;;;;;2.28;1.60;;;;;11.50;98336.00;;;;4935839;29;20040;-61
2023/11/21 10:54:25;;;;;;;3.40;1.30;;;;;11.60;98340.00;;;;4934996;29;20058;-60
2023/11/21 10:57:00;;;;;;;2.75;1.60;;;;;11.60;98336.00;;;;4936836;29;20052;-65
2023/11/21 10:59:30;;;;;;;4.15;1.60;;;;;11.60;98339.00;;;;4937074;29;20047;-59
2023/11/21 11:02:00;;;;;;;4.50;1.58;;;;;11.60;98335.00;;;;4935623;29;20509;-62
2023/11/21 11:04:27;;;;;;;2.67;1.30;;;;;11.60;98339.00;;;;4935054;29;20069;-61
2023/11/21 11:06:57;;;;;;;3.10;1.75;;;;;11.50;98336.00;;;;4936703;29;20039;-61
2023/11/21 11:09:24;;;;;;;2.95;1.58;;;;;11.50;98334.00;;;;4935626;29;20043;-60
2023/11/21 11:11:52;;;;;;;1.95;1.63;;;;;11.40;98334.00;;;;4935560;29;20091;-61
2023/11/21 11:14:19;;;;;;;2.75;1.50;;;;;11.40;98330.00;;;;4936044;29;20055;-61
2023/11/21 11:16:49;;;;;;;3.33;1.60;;;;;11.30;98329.00;;;;4936536;29;20445;-61
2023/11/21 11:19:16;;;;;;;3.30;1.60;;;;;11.40;98338.00;;;;4935277;29;20043;-62
2023/11/21 11:22:04;;;;;;;3.67;2.10;;;;;11.40;98334.00;;;;4935163;29;20055;-64
2023/11/21 11:25:13;;;;;;;4.60;1.60;;;;;11.50;98338.00;;;;4934533;29;20134;-62
2023/11/21 11:27:47;;;;;;;1.98;1.58;;;;;11.40;98329.00;;;;4935024;29;20189;-62
2023/11/21 11:30:39;;;;;;;2.30;1.40;;;;;11.50;98325.00;;;;4935379;29;20039;-62
2023/11/21 11:33:43;;;;;;;1.98;1.38;;;;;11.50;98318.00;;;;4919365;29;20548;-62
2023/11/21 11:36:27;;;;;;;4.45;1.20;;;;;11.60;98324.00;;;;4936107;29;20044;-62
2023/11/21 11:38:55;;;;;;;1.77;1.50;;;;;11.70;98329.00;;;;4934961;29;20067;-64
2023/11/21 11:41:33;;;;;;;3.20;1.60;;;;;11.80;98328.00;;;;4936093;29;20075;-62
2023/11/21 11:44:00;;;;;;;2.22;1.52;;;;;11.90;98325.00;;;;4935334;29;20512;-63
2023/11/21 11:46:47;;;;;;;1.50;1.35;;;;;12.00;98333.00;;;;4934751;29;20043;-62
2023/11/21 11:49:27;;;;;;;4.15;1.50;;;;;12.00;98336.00;;;;4934325;29;20051;-62
2023/11/21 11:52:31;;;;;;;3.35;1.33;;;;;12.00;98337.00;;;;4934608;29;20081;-62
2023/11/21 11:54:59;;;;;;;2.50;1.30;;;;;11.80;98342.00;;;;4934236;29;20048;-63
2023/11/21 11:57:29;;;;;;;3.25;1.50;;;;;11.70;98344.00;;;;4918953;29;20138;-65
2023/11/21 12:00:20;;;;;;;1.63;1.30;;;;;11.70;98350.00;;;;4935970;29;20071;-62
2023/11/21 12:02:54;;;;;;;2.65;1.45;;;;;11.70;98342.00;;;;4935865;29;20386;-62
2023/11/21 12:05:22;;;;;;;3.97;1.50;;;;;11.80;98344.00;;;;4935063;29;20528;-64
2023/11/21 12:07:54;;;;;;;2.33;1.50;;;;;11.90;98346.00;;;;4934417;29;20082;-63
2023/11/21 12:10:25;;;;;;;2.80;1.90;;;;;11.90;98339.00;;;;4934759;29;20560;-62
2023/11/21 12:12:56;;;;;;;2.47;1.73;;;;;11.80;98337.00;;;;4935732;29;20416;-63
2023/11/21 12:15:23;;;;;;;2.15;1.52;;;;;11.90;98339.00;;;;4934922;29;20048;-63
2023/11/21 12:17:49;;;;;;;3.20;1.80;;;;;11.90;98332.00;;;;4934380;29;20494;-61
2023/11/21 12:20:21;;;;;;;3.17;1.80;;;;;11.90;98341.00;;;;4935637;29;20098;-61
2023/11/21 12:22:50;;;;;;;4.20;1.80;;;;;12.00;98345.00;;;;4934176;29;20139;-60
2023/11/21 12:25:21;;;;;;;2.58;1.55;;;;;12.10;98336.00;;;;4917825;29;20532;-65
2023/11/21 12:27:52;;;;;;;5.47;1.98;;;;;12.20;98339.00;;;;4935739;29;20094;-61